Terminal Aerodrome Forecast
Issued by NWS

Home | Current Version | Previous Version | Text Only | Print | Product List | Glossary On
Versions: 1 2 3 4 5 6 7 8 9 10 11 12 13 14 15 16 17 18 19 20 21 22 23 24 25 26 27 28 29 30
000
FTUS41 KALY 181904 AAA
TAFPSF
TAF AMD
KPSF 181904Z 1819/1918 02003KT P6SM VCSH FEW014 OVC024
      TEMPO 1819/1822 2SM BR OVC009
     FM190600 27003KT 6SM BR OVC015
     FM191500 29004KT P6SM BKN045=

USA.gov is the U.S. government's official web portal to all federal, state and local government web resources and services.